sensor_id;sensor_type;location;lat;lon;timestamp;P1;durP1;ratioP1;P2;durP2;ratioP2
43509;SDS011;29105;57.764;40.952;2023-05-23T00:00:25;3.33;;;1.02;;
43509;SDS011;29105;57.764;40.952;2023-05-23T00:02:51;5.97;;;1.42;;
43509;SDS011;29105;57.764;40.952;2023-05-23T00:05:17;7.28;;;1.17;;
43509;SDS011;29105;57.764;40.952;2023-05-23T00:07:43;5.75;;;1.20;;
43509;SDS011;29105;57.764;40.952;2023-05-23T00:10:10;6.32;;;1.00;;
43509;SDS011;29105;57.764;40.952;2023-05-23T00:12:38;7.18;;;1.33;;
43509;SDS011;29105;57.764;40.952;2023-05-23T00:15:07;3.47;;;1.30;;
43509;SDS011;29105;57.764;40.952;2023-05-23T00:17:34;7.80;;;1.83;;
43509;SDS011;29105;57.764;40.952;2023-05-23T00:20:07;8.45;;;1.92;;
43509;SDS011;29105;57.764;40.952;2023-05-23T00:22:36;11.02;;;1.83;;
43509;SDS011;29105;57.764;40.952;2023-05-23T00:25:10;8.48;;;2.58;;
43509;SDS011;29105;57.764;40.952;2023-05-23T00:27:36;13.50;;;2.95;;
43509;SDS011;29105;57.764;40.952;2023-05-23T00:30:02;9.35;;;3.15;;
43509;SDS011;29105;57.764;40.952;2023-05-23T00:32:33;15.38;;;3.45;;
43509;SDS011;29105;57.764;40.952;2023-05-23T00:34:59;11.75;;;2.92;;
43509;SDS011;29105;57.764;40.952;2023-05-23T00:37:25;15.45;;;2.78;;
43509;SDS011;29105;57.764;40.952;2023-05-23T00:39:51;9.23;;;2.75;;
43509;SDS011;29105;57.764;40.952;2023-05-23T00:42:16;10.27;;;2.47;;
43509;SDS011;29105;57.764;40.952;2023-05-23T00:44:42;9.93;;;2.50;;
43509;SDS011;29105;57.764;40.952;2023-05-23T00:47:07;11.27;;;1.73;;
43509;SDS011;29105;57.764;40.952;2023-05-23T00:49:33;10.25;;;1.75;;
43509;SDS011;29105;57.764;40.952;2023-05-23T00:51:59;5.88;;;1.52;;
43509;SDS011;29105;57.764;40.952;2023-05-23T00:54:27;8.90;;;1.48;;
43509;SDS011;29105;57.764;40.952;2023-05-23T00:56:55;4.82;;;1.35;;
43509;SDS011;29105;57.764;40.952;2023-05-23T00:59:24;2.90;;;1.27;;
43509;SDS011;29105;57.764;40.952;2023-05-23T01:01:51;5.57;;;1.02;;
43509;SDS011;29105;57.764;40.952;2023-05-23T01:04:17;7.07;;;1.15;;
43509;SDS011;29105;57.764;40.952;2023-05-23T01:06:45;5.57;;;1.48;;
43509;SDS011;29105;57.764;40.952;2023-05-23T01:09:16;7.72;;;1.55;;
43509;SDS011;29105;57.764;40.952;2023-05-23T01:11:42;4.82;;;1.30;;
43509;SDS011;29105;57.764;40.952;2023-05-23T01:14:33;6.25;;;1.05;;
43509;SDS011;29105;57.764;40.952;2023-05-23T01:17:09;3.42;;;1.77;;
43509;SDS011;29105;57.764;40.952;2023-05-23T01:28:11;5.53;;;1.30;;
43509;SDS011;29105;57.764;40.952;2023-05-23T01:30:41;7.47;;;1.42;;
43509;SDS011;29105;57.764;40.952;2023-05-23T01:33:09;5.90;;;1.13;;
43509;SDS011;29105;57.764;40.952;2023-05-23T01:35:35;11.02;;;1.73;;
43509;SDS011;29105;57.764;40.952;2023-05-23T01:38:01;7.30;;;1.65;;
43509;SDS011;29105;57.764;40.952;2023-05-23T01:40:27;6.55;;;1.23;;
43509;SDS011;29105;57.764;40.952;2023-05-23T01:42:54;6.53;;;1.52;;
43509;SDS011;29105;57.764;40.952;2023-05-23T01:45:21;9.05;;;1.15;;
43509;SDS011;29105;57.764;40.952;2023-05-23T01:47:50;8.32;;;1.92;;
43509;SDS011;29105;57.764;40.952;2023-05-23T01:50:16;6.25;;;1.50;;
43509;SDS011;29105;57.764;40.952;2023-05-23T01:52:42;8.27;;;1.85;;
43509;SDS011;29105;57.764;40.952;2023-05-23T01:55:08;6.47;;;1.75;;
43509;SDS011;29105;57.764;40.952;2023-05-23T01:57:36;4.50;;;1.52;;
43509;SDS011;29105;57.764;40.952;2023-05-23T02:00:05;7.22;;;1.25;;
43509;SDS011;29105;57.764;40.952;2023-05-23T02:02:32;4.68;;;1.35;;
43509;SDS011;29105;57.764;40.952;2023-05-23T02:04:58;6.03;;;1.20;;
43509;SDS011;29105;57.764;40.952;2023-05-23T02:07:24;3.97;;;1.63;;
43509;SDS011;29105;57.764;40.952;2023-05-23T02:09:50;3.88;;;1.58;;
43509;SDS011;29105;57.764;40.952;2023-05-23T02:12:16;6.28;;;1.50;;
43509;SDS011;29105;57.764;40.952;2023-05-23T02:14:41;6.65;;;1.10;;
43509;SDS011;29105;57.764;40.952;2023-05-23T02:17:07;5.68;;;1.42;;
43509;SDS011;29105;57.764;40.952;2023-05-23T02:19:36;11.35;;;1.70;;
43509;SDS011;29105;57.764;40.952;2023-05-23T02:22:02;8.32;;;1.98;;
43509;SDS011;29105;57.764;40.952;2023-05-23T02:24:27;7.15;;;1.00;;
43509;SDS011;29105;57.764;40.952;2023-05-23T02:26:53;5.03;;;1.23;;
43509;SDS011;29105;57.764;40.952;2023-05-23T02:29:19;6.25;;;1.70;;
43509;SDS011;29105;57.764;40.952;2023-05-23T02:31:45;11.30;;;2.15;;
43509;SDS011;29105;57.764;40.952;2023-05-23T02:34:10;7.22;;;1.55;;
43509;SDS011;29105;57.764;40.952;2023-05-23T02:36:36;9.30;;;1.90;;
43509;SDS011;29105;57.764;40.952;2023-05-23T02:39:03;7.22;;;1.85;;
43509;SDS011;29105;57.764;40.952;2023-05-23T02:41:29;8.35;;;1.98;;
43509;SDS011;29105;57.764;40.952;2023-05-23T02:43:55;9.02;;;1.80;;
43509;SDS011;29105;57.764;40.952;2023-05-23T02:46:21;8.38;;;1.75;;
43509;SDS011;29105;57.764;40.952;2023-05-23T02:48:47;7.22;;;1.73;;
43509;SDS011;29105;57.764;40.952;2023-05-23T02:51:12;10.38;;;1.65;;
43509;SDS011;29105;57.764;40.952;2023-05-23T02:53:38;6.53;;;1.05;;
43509;SDS011;29105;57.764;40.952;2023-05-23T02:56:04;4.20;;;1.38;;
43509;SDS011;29105;57.764;40.952;2023-05-23T02:58:33;7.88;;;1.98;;
43509;SDS011;29105;57.764;40.952;2023-05-23T03:01:01;7.93;;;1.73;;
43509;SDS011;29105;57.764;40.952;2023-05-23T03:03:27;7.00;;;1.92;;
43509;SDS011;29105;57.764;40.952;2023-05-23T03:05:56;6.28;;;1.30;;
43509;SDS011;29105;57.764;40.952;2023-05-23T03:08:22;5.10;;;2.03;;
43509;SDS011;29105;57.764;40.952;2023-05-23T03:10:48;2.38;;;1.08;;
43509;SDS011;29105;57.764;40.952;2023-05-23T03:13:14;7.35;;;1.70;;
43509;SDS011;29105;57.764;40.952;2023-05-23T03:15:40;6.30;;;1.83;;
43509;SDS011;29105;57.764;40.952;2023-05-23T03:18:06;10.13;;;1.50;;
43509;SDS011;29105;57.764;40.952;2023-05-23T03:20:32;13.02;;;2.78;;
43509;SDS011;29105;57.764;40.952;2023-05-23T03:22:58;10.10;;;2.30;;
43509;SDS011;29105;57.764;40.952;2023-05-23T03:25:23;3.83;;;1.67;;
43509;SDS011;29105;57.764;40.952;2023-05-23T03:27:50;5.03;;;1.42;;
43509;SDS011;29105;57.764;40.952;2023-05-23T03:30:16;3.88;;;1.10;;
43509;SDS011;29105;57.764;40.952;2023-05-23T03:32:41;4.82;;;1.60;;
43509;SDS011;29105;57.764;40.952;2023-05-23T03:35:07;5.85;;;2.03;;
43509;SDS011;29105;57.764;40.952;2023-05-23T03:37:33;8.80;;;2.10;;
43509;SDS011;29105;57.764;40.952;2023-05-23T03:39:59;5.10;;;1.77;;
43509;SDS011;29105;57.764;40.952;2023-05-23T03:42:26;5.90;;;1.85;;
43509;SDS011;29105;57.764;40.952;2023-05-23T03:44:52;5.72;;;1.55;;
43509;SDS011;29105;57.764;40.952;2023-05-23T03:47:18;5.95;;;1.17;;
43509;SDS011;29105;57.764;40.952;2023-05-23T03:49:43;4.25;;;1.58;;
43509;SDS011;29105;57.764;40.952;2023-05-23T03:52:09;7.30;;;1.63;;
43509;SDS011;29105;57.764;40.952;2023-05-23T03:54:35;5.75;;;1.23;;
43509;SDS011;29105;57.764;40.952;2023-05-23T03:57:01;5.15;;;1.70;;
43509;SDS011;29105;57.764;40.952;2023-05-23T03:59:27;4.55;;;1.48;;
43509;SDS011;29105;57.764;40.952;2023-05-23T04:01:53;6.13;;;1.23;;
43509;SDS011;29105;57.764;40.952;2023-05-23T04:04:19;7.80;;;1.77;;
43509;SDS011;29105;57.764;40.952;2023-05-23T04:06:45;7.43;;;1.95;;
43509;SDS011;29105;57.764;40.952;2023-05-23T04:09:11;9.18;;;1.88;;
43509;SDS011;29105;57.764;40.952;2023-05-23T04:11:38;9.20;;;1.65;;
43509;SDS011;29105;57.764;40.952;2023-05-23T04:14:04;9.45;;;1.42;;
43509;SDS011;29105;57.764;40.952;2023-05-23T04:16:30;6.85;;;1.60;;
43509;SDS011;29105;57.764;40.952;2023-05-23T04:18:57;5.25;;;1.98;;
43509;SDS011;29105;57.764;40.952;2023-05-23T04:21:23;4.18;;;1.90;;
43509;SDS011;29105;57.764;40.952;2023-05-23T04:23:49;4.90;;;1.92;;
43509;SDS011;29105;57.764;40.952;2023-05-23T04:26:15;17.23;;;1.77;;
43509;SDS011;29105;57.764;40.952;2023-05-23T04:28:41;7.50;;;1.58;;
43509;SDS011;29105;57.764;40.952;2023-05-23T04:31:10;6.10;;;1.67;;
43509;SDS011;29105;57.764;40.952;2023-05-23T04:33:37;8.75;;;1.88;;
43509;SDS011;29105;57.764;40.952;2023-05-23T04:36:03;8.07;;;1.88;;
43509;SDS011;29105;57.764;40.952;2023-05-23T04:38:29;4.68;;;1.42;;
43509;SDS011;29105;57.764;40.952;2023-05-23T04:40:54;3.10;;;1.80;;
43509;SDS011;29105;57.764;40.952;2023-05-23T04:43:22;5.18;;;1.92;;
43509;SDS011;29105;57.764;40.952;2023-05-23T04:45:51;6.70;;;2.10;;
43509;SDS011;29105;57.764;40.952;2023-05-23T04:48:21;9.30;;;1.90;;
43509;SDS011;29105;57.764;40.952;2023-05-23T04:50:47;6.35;;;1.80;;
43509;SDS011;29105;57.764;40.952;2023-05-23T04:53:15;9.85;;;2.17;;
43509;SDS011;29105;57.764;40.952;2023-05-23T04:55:41;10.40;;;1.98;;
43509;SDS011;29105;57.764;40.952;2023-05-23T04:58:06;10.90;;;1.90;;
43509;SDS011;29105;57.764;40.952;2023-05-23T05:00:32;5.47;;;1.88;;
43509;SDS011;29105;57.764;40.952;2023-05-23T05:02:58;6.10;;;2.00;;
43509;SDS011;29105;57.764;40.952;2023-05-23T05:05:23;10.02;;;2.22;;
43509;SDS011;29105;57.764;40.952;2023-05-23T05:07:49;8.80;;;2.50;;
43509;SDS011;29105;57.764;40.952;2023-05-23T05:10:15;6.68;;;2.05;;
43509;SDS011;29105;57.764;40.952;2023-05-23T05:12:42;7.32;;;2.05;;
43509;SDS011;29105;57.764;40.952;2023-05-23T05:15:14;9.80;;;2.35;;
43509;SDS011;29105;57.764;40.952;2023-05-23T05:17:41;10.70;;;2.30;;
43509;SDS011;29105;57.764;40.952;2023-05-23T05:20:08;6.53;;;2.15;;
43509;SDS011;29105;57.764;40.952;2023-05-23T05:22:36;11.95;;;2.25;;
43509;SDS011;29105;57.764;40.952;2023-05-23T05:25:05;7.22;;;2.50;;
43509;SDS011;29105;57.764;40.952;2023-05-23T05:27:31;9.43;;;1.88;;
43509;SDS011;29105;57.764;40.952;2023-05-23T05:29:57;8.48;;;2.22;;
43509;SDS011;29105;57.764;40.952;2023-05-23T05:32:31;13.15;;;2.33;;
43509;SDS011;29105;57.764;40.952;2023-05-23T05:35:01;12.93;;;2.00;;
43509;SDS011;29105;57.764;40.952;2023-05-23T05:37:29;6.53;;;2.10;;
43509;SDS011;29105;57.764;40.952;2023-05-23T05:39:55;5.60;;;1.67;;
43509;SDS011;29105;57.764;40.952;2023-05-23T05:42:21;7.50;;;2.08;;
43509;SDS011;29105;57.764;40.952;2023-05-23T05:44:47;17.55;;;2.40;;
43509;SDS011;29105;57.764;40.952;2023-05-23T05:47:13;8.43;;;1.75;;
43509;SDS011;29105;57.764;40.952;2023-05-23T05:49:39;6.88;;;1.90;;
43509;SDS011;29105;57.764;40.952;2023-05-23T05:52:07;7.30;;;2.00;;
43509;SDS011;29105;57.764;40.952;2023-05-23T05:54:33;5.28;;;1.92;;
43509;SDS011;29105;57.764;40.952;2023-05-23T05:56:59;7.10;;;2.15;;
43509;SDS011;29105;57.764;40.952;2023-05-23T05:59:25;6.07;;;1.92;;
43509;SDS011;29105;57.764;40.952;2023-05-23T06:01:51;3.50;;;1.50;;
43509;SDS011;29105;57.764;40.952;2023-05-23T06:04:17;6.38;;;1.48;;
43509;SDS011;29105;57.764;40.952;2023-05-23T06:06:43;7.00;;;1.73;;
43509;SDS011;29105;57.764;40.952;2023-05-23T06:09:09;3.28;;;1.00;;
43509;SDS011;29105;57.764;40.952;2023-05-23T06:11:35;5.30;;;1.50;;
43509;SDS011;29105;57.764;40.952;2023-05-23T06:14:08;5.20;;;1.83;;
43509;SDS011;29105;57.764;40.952;2023-05-23T06:16:33;6.82;;;1.70;;
43509;SDS011;29105;57.764;40.952;2023-05-23T06:18:59;7.28;;;1.77;;
43509;SDS011;29105;57.764;40.952;2023-05-23T06:21:25;10.10;;;2.13;;
43509;SDS011;29105;57.764;40.952;2023-05-23T06:23:51;3.97;;;1.60;;
43509;SDS011;29105;57.764;40.952;2023-05-23T06:26:17;7.93;;;1.60;;
43509;SDS011;29105;57.764;40.952;2023-05-23T06:28:42;8.32;;;1.98;;
43509;SDS011;29105;57.764;40.952;2023-05-23T06:31:08;6.53;;;1.50;;
43509;SDS011;29105;57.764;40.952;2023-05-23T06:33:34;9.90;;;2.13;;
43509;SDS011;29105;57.764;40.952;2023-05-23T06:36:00;5.63;;;2.13;;
43509;SDS011;29105;57.764;40.952;2023-05-23T06:38:26;7.18;;;1.52;;
43509;SDS011;29105;57.764;40.952;2023-05-23T06:40:54;5.93;;;1.45;;
43509;SDS011;29105;57.764;40.952;2023-05-23T06:43:20;8.25;;;1.65;;
43509;SDS011;29105;57.764;40.952;2023-05-23T06:45:46;5.68;;;1.58;;
43509;SDS011;29105;57.764;40.952;2023-05-23T06:48:11;7.38;;;1.92;;
43509;SDS011;29105;57.764;40.952;2023-05-23T06:50:37;12.65;;;1.90;;
43509;SDS011;29105;57.764;40.952;2023-05-23T06:53:05;9.63;;;1.77;;
43509;SDS011;29105;57.764;40.952;2023-05-23T06:55:30;9.32;;;2.33;;
43509;SDS011;29105;57.764;40.952;2023-05-23T06:57:58;5.22;;;2.00;;
43509;SDS011;29105;57.764;40.952;2023-05-23T07:00:24;3.17;;;1.55;;
43509;SDS011;29105;57.764;40.952;2023-05-23T07:02:50;6.60;;;2.22;;
43509;SDS011;29105;57.764;40.952;2023-05-23T07:05:16;6.47;;;1.75;;
43509;SDS011;29105;57.764;40.952;2023-05-23T07:07:41;7.82;;;1.75;;
43509;SDS011;29105;57.764;40.952;2023-05-23T07:10:07;8.73;;;1.70;;
43509;SDS011;29105;57.764;40.952;2023-05-23T07:12:34;14.07;;;2.20;;
43509;SDS011;29105;57.764;40.952;2023-05-23T07:15:00;6.65;;;1.50;;
43509;SDS011;29105;57.764;40.952;2023-05-23T07:17:25;5.95;;;1.50;;
43509;SDS011;29105;57.764;40.952;2023-05-23T07:19:54;3.03;;;1.38;;
43509;SDS011;29105;57.764;40.952;2023-05-23T07:22:20;5.20;;;1.65;;
43509;SDS011;29105;57.764;40.952;2023-05-23T07:24:45;7.82;;;2.17;;
43509;SDS011;29105;57.764;40.952;2023-05-23T07:27:11;6.28;;;1.75;;
43509;SDS011;29105;57.764;40.952;2023-05-23T07:29:37;7.82;;;1.95;;
43509;SDS011;29105;57.764;40.952;2023-05-23T07:32:03;5.45;;;2.10;;
43509;SDS011;29105;57.764;40.952;2023-05-23T07:34:29;8.02;;;1.38;;
43509;SDS011;29105;57.764;40.952;2023-05-23T07:36:55;7.35;;;1.92;;
43509;SDS011;29105;57.764;40.952;2023-05-23T07:39:21;16.08;;;2.20;;
43509;SDS011;29105;57.764;40.952;2023-05-23T07:41:48;7.63;;;1.70;;
43509;SDS011;29105;57.764;40.952;2023-05-23T07:44:15;12.48;;;2.22;;
43509;SDS011;29105;57.764;40.952;2023-05-23T07:46:42;8.23;;;2.58;;
43509;SDS011;29105;57.764;40.952;2023-05-23T07:49:08;10.77;;;2.55;;
43509;SDS011;29105;57.764;40.952;2023-05-23T07:51:33;5.72;;;1.50;;
43509;SDS011;29105;57.764;40.952;2023-05-23T07:53:59;5.97;;;1.70;;
43509;SDS011;29105;57.764;40.952;2023-05-23T07:56:25;11.20;;;1.77;;
43509;SDS011;29105;57.764;40.952;2023-05-23T07:58:51;9.88;;;2.10;;
43509;SDS011;29105;57.764;40.952;2023-05-23T08:01:16;7.72;;;2.20;;
43509;SDS011;29105;57.764;40.952;2023-05-23T08:03:42;9.35;;;2.53;;
43509;SDS011;29105;57.764;40.952;2023-05-23T08:06:08;6.85;;;1.73;;
43509;SDS011;29105;57.764;40.952;2023-05-23T08:08:34;10.32;;;2.40;;
43509;SDS011;29105;57.764;40.952;2023-05-23T08:11:00;11.15;;;2.25;;
43509;SDS011;29105;57.764;40.952;2023-05-23T08:13:26;10.85;;;2.30;;
43509;SDS011;29105;57.764;40.952;2023-05-23T08:15:52;13.95;;;3.20;;
43509;SDS011;29105;57.764;40.952;2023-05-23T08:18:18;11.95;;;2.50;;
43509;SDS011;29105;57.764;40.952;2023-05-23T08:20:44;7.55;;;1.73;;
43509;SDS011;29105;57.764;40.952;2023-05-23T08:23:10;6.70;;;1.70;;
43509;SDS011;29105;57.764;40.952;2023-05-23T08:25:36;12.77;;;2.15;;
43509;SDS011;29105;57.764;40.952;2023-05-23T08:28:02;13.68;;;3.10;;
43509;SDS011;29105;57.764;40.952;2023-05-23T08:30:28;29.77;;;6.95;;
43509;SDS011;29105;57.764;40.952;2023-05-23T08:32:54;36.72;;;7.72;;
43509;SDS011;29105;57.764;40.952;2023-05-23T08:35:21;36.03;;;7.50;;
43509;SDS011;29105;57.764;40.952;2023-05-23T08:37:47;20.58;;;5.53;;
43509;SDS011;29105;57.764;40.952;2023-05-23T08:40:13;17.30;;;4.55;;
43509;SDS011;29105;57.764;40.952;2023-05-23T08:42:43;6.93;;;2.20;;
43509;SDS011;29105;57.764;40.952;2023-05-23T08:45:09;12.90;;;2.47;;
43509;SDS011;29105;57.764;40.952;2023-05-23T08:47:35;8.23;;;2.25;;
43509;SDS011;29105;57.764;40.952;2023-05-23T08:50:03;8.32;;;2.30;;
43509;SDS011;29105;57.764;40.952;2023-05-23T08:52:30;8.48;;;2.10;;
43509;SDS011;29105;57.764;40.952;2023-05-23T08:54:59;6.40;;;1.85;;
43509;SDS011;29105;57.764;40.952;2023-05-23T08:57:25;10.43;;;3.20;;
43509;SDS011;29105;57.764;40.952;2023-05-23T08:59:51;11.63;;;3.85;;
43509;SDS011;29105;57.764;40.952;2023-05-23T09:02:17;12.38;;;4.32;;
43509;SDS011;29105;57.764;40.952;2023-05-23T09:04:43;10.50;;;3.90;;
43509;SDS011;29105;57.764;40.952;2023-05-23T09:07:09;6.10;;;1.45;;
43509;SDS011;29105;57.764;40.952;2023-05-23T09:09:36;6.28;;;2.05;;
43509;SDS011;29105;57.764;40.952;2023-05-23T09:12:01;10.38;;;2.20;;
43509;SDS011;29105;57.764;40.952;2023-05-23T09:14:29;8.68;;;2.45;;
43509;SDS011;29105;57.764;40.952;2023-05-23T09:17:00;8.95;;;1.83;;
43509;SDS011;29105;57.764;40.952;2023-05-23T09:19:27;3.08;;;1.20;;
43509;SDS011;29105;57.764;40.952;2023-05-23T09:21:53;6.20;;;1.38;;
43509;SDS011;29105;57.764;40.952;2023-05-23T09:24:19;5.85;;;1.75;;
43509;SDS011;29105;57.764;40.952;2023-05-23T09:26:45;8.18;;;1.90;;
43509;SDS011;29105;57.764;40.952;2023-05-23T09:29:12;4.53;;;0.90;;
43509;SDS011;29105;57.764;40.952;2023-05-23T09:31:38;3.20;;;1.15;;
43509;SDS011;29105;57.764;40.952;2023-05-23T09:34:04;6.47;;;1.27;;
43509;SDS011;29105;57.764;40.952;2023-05-23T09:36:31;8.98;;;1.50;;
43509;SDS011;29105;57.764;40.952;2023-05-23T09:39:02;2.83;;;0.85;;
43509;SDS011;29105;57.764;40.952;2023-05-23T09:41:35;5.47;;;1.20;;
43509;SDS011;29105;57.764;40.952;2023-05-23T09:44:05;4.32;;;1.20;;
43509;SDS011;29105;57.764;40.952;2023-05-23T09:46:34;4.43;;;0.77;;
43509;SDS011;29105;57.764;40.952;2023-05-23T09:49:00;6.70;;;2.17;;
43509;SDS011;29105;57.764;40.952;2023-05-23T09:51:26;6.45;;;1.00;;
43509;SDS011;29105;57.764;40.952;2023-05-23T09:53:52;5.43;;;1.30;;
43509;SDS011;29105;57.764;40.952;2023-05-23T09:56:18;5.20;;;0.98;;
43509;SDS011;29105;57.764;40.952;2023-05-23T09:58:48;5.22;;;1.23;;
43509;SDS011;29105;57.764;40.952;2023-05-23T10:01:15;6.07;;;1.10;;
43509;SDS011;29105;57.764;40.952;2023-05-23T10:03:48;6.40;;;1.25;;
43509;SDS011;29105;57.764;40.952;2023-05-23T10:09:04;3.63;;;0.88;;
43509;SDS011;29105;57.764;40.952;2023-05-23T10:14:09;4.45;;;1.25;;
43509;SDS011;29105;57.764;40.952;2023-05-23T10:19:12;8.85;;;1.55;;
43509;SDS011;29105;57.764;40.952;2023-05-23T10:21:48;6.22;;;0.98;;
43509;SDS011;29105;57.764;40.952;2023-05-23T10:24:15;9.10;;;1.10;;
43509;SDS011;29105;57.764;40.952;2023-05-23T10:26:41;7.70;;;1.10;;
43509;SDS011;29105;57.764;40.952;2023-05-23T10:29:08;10.10;;;1.55;;
43509;SDS011;29105;57.764;40.952;2023-05-23T10:31:33;3.97;;;1.40;;
43509;SDS011;29105;57.764;40.952;2023-05-23T10:36:58;3.30;;;1.40;;
43509;SDS011;29105;57.764;40.952;2023-05-23T10:42:37;7.72;;;1.67;;
43509;SDS011;29105;57.764;40.952;2023-05-23T10:45:17;7.78;;;3.10;;
43509;SDS011;29105;57.764;40.952;2023-05-23T10:47:47;1.85;;;1.20;;
43509;SDS011;29105;57.764;40.952;2023-05-23T10:50:15;4.97;;;1.40;;
43509;SDS011;29105;57.764;40.952;2023-05-23T10:52:55;5.70;;;1.83;;
43509;SDS011;29105;57.764;40.952;2023-05-23T10:55:21;5.32;;;2.03;;
43509;SDS011;29105;57.764;40.952;2023-05-23T10:57:47;8.75;;;2.45;;
43509;SDS011;29105;57.764;40.952;2023-05-23T11:00:36;3.65;;;2.42;;
43509;SDS011;29105;57.764;40.952;2023-05-23T11:03:03;7.60;;;2.28;;
43509;SDS011;29105;57.764;40.952;2023-05-23T11:05:33;7.25;;;2.70;;
43509;SDS011;29105;57.764;40.952;2023-05-23T11:08:06;7.00;;;2.38;;
43509;SDS011;29105;57.764;40.952;2023-05-23T11:10:54;14.43;;;5.45;;
43509;SDS011;29105;57.764;40.952;2023-05-23T11:13:20;13.18;;;4.28;;
43509;SDS011;29105;57.764;40.952;2023-05-23T11:15:47;3.47;;;1.88;;
43509;SDS011;29105;57.764;40.952;2023-05-23T11:18:23;18.20;;;3.10;;
43509;SDS011;29105;57.764;40.952;2023-05-23T11:20:52;5.20;;;2.70;;
43509;SDS011;29105;57.764;40.952;2023-05-23T11:23:18;7.45;;;2.78;;
43509;SDS011;29105;57.764;40.952;2023-05-23T11:25:49;7.07;;;2.75;;
43509;SDS011;29105;57.764;40.952;2023-05-23T11:28:16;7.65;;;3.75;;
43509;SDS011;29105;57.764;40.952;2023-05-23T11:30:42;9.73;;;3.67;;
43509;SDS011;29105;57.764;40.952;2023-05-23T11:33:11;15.32;;;3.50;;
43509;SDS011;29105;57.764;40.952;2023-05-23T11:35:39;10.17;;;3.53;;
43509;SDS011;29105;57.764;40.952;2023-05-23T11:38:05;5.38;;;3.03;;
43509;SDS011;29105;57.764;40.952;2023-05-23T11:40:39;11.90;;;3.90;;
43509;SDS011;29105;57.764;40.952;2023-05-23T11:43:07;15.27;;;4.50;;
43509;SDS011;29105;57.764;40.952;2023-05-23T11:45:38;15.15;;;3.45;;
43509;SDS011;29105;57.764;40.952;2023-05-23T11:48:13;8.38;;;3.95;;
43509;SDS011;29105;57.764;40.952;2023-05-23T11:50:47;10.75;;;4.03;;
43509;SDS011;29105;57.764;40.952;2023-05-23T11:53:14;13.18;;;4.60;;
43509;SDS011;29105;57.764;40.952;2023-05-23T11:58:14;7.95;;;4.32;;
43509;SDS011;29105;57.764;40.952;2023-05-23T12:00:44;8.20;;;3.22;;
43509;SDS011;29105;57.764;40.952;2023-05-23T12:03:10;13.18;;;3.75;;
43509;SDS011;29105;57.764;40.952;2023-05-23T12:05:36;8.75;;;3.55;;
43509;SDS011;29105;57.764;40.952;2023-05-23T12:08:02;9.75;;;3.78;;
43509;SDS011;29105;57.764;40.952;2023-05-23T12:10:28;7.38;;;3.88;;
43509;SDS011;29105;57.764;40.952;2023-05-23T12:12:53;8.25;;;3.70;;
43509;SDS011;29105;57.764;40.952;2023-05-23T12:15:23;11.45;;;4.70;;
43509;SDS011;29105;57.764;40.952;2023-05-23T12:17:52;10.77;;;3.45;;
43509;SDS011;29105;57.764;40.952;2023-05-23T12:20:18;6.07;;;3.78;;
43509;SDS011;29105;57.764;40.952;2023-05-23T12:22:45;7.32;;;3.78;;
43509;SDS011;29105;57.764;40.952;2023-05-23T12:25:11;11.18;;;4.72;;
43509;SDS011;29105;57.764;40.952;2023-05-23T12:27:38;10.45;;;4.38;;
43509;SDS011;29105;57.764;40.952;2023-05-23T12:30:08;11.80;;;4.13;;
43509;SDS011;29105;57.764;40.952;2023-05-23T12:32:43;12.18;;;5.03;;
43509;SDS011;29105;57.764;40.952;2023-05-23T12:35:10;8.57;;;5.47;;
43509;SDS011;29105;57.764;40.952;2023-05-23T12:37:38;12.88;;;3.97;;
43509;SDS011;29105;57.764;40.952;2023-05-23T12:40:14;11.90;;;5.18;;
43509;SDS011;29105;57.764;40.952;2023-05-23T12:42:51;9.55;;;5.57;;
43509;SDS011;29105;57.764;40.952;2023-05-23T12:45:20;8.68;;;3.90;;
43509;SDS011;29105;57.764;40.952;2023-05-23T12:47:47;26.92;;;16.00;;
43509;SDS011;29105;57.764;40.952;2023-05-23T12:50:13;51.00;;;36.85;;
43509;SDS011;29105;57.764;40.952;2023-05-23T12:52:38;12.98;;;7.15;;
43509;SDS011;29105;57.764;40.952;2023-05-23T12:55:05;9.73;;;5.13;;
43509;SDS011;29105;57.764;40.952;2023-05-23T12:57:32;13.73;;;5.93;;
43509;SDS011;29105;57.764;40.952;2023-05-23T12:59:59;13.30;;;5.75;;
43509;SDS011;29105;57.764;40.952;2023-05-23T13:02:24;10.30;;;5.80;;
43509;SDS011;29105;57.764;40.952;2023-05-23T13:04:51;9.38;;;4.90;;
43509;SDS011;29105;57.764;40.952;2023-05-23T13:07:17;10.50;;;6.05;;
43509;SDS011;29105;57.764;40.952;2023-05-23T13:09:42;12.77;;;5.10;;
43509;SDS011;29105;57.764;40.952;2023-05-23T13:12:08;8.07;;;4.07;;
43509;SDS011;29105;57.764;40.952;2023-05-23T13:14:34;14.63;;;5.40;;
43509;SDS011;29105;57.764;40.952;2023-05-23T13:17:00;12.60;;;6.00;;
43509;SDS011;29105;57.764;40.952;2023-05-23T13:19:26;7.75;;;5.70;;
43509;SDS011;29105;57.764;40.952;2023-05-23T13:21:52;12.05;;;6.78;;
43509;SDS011;29105;57.764;40.952;2023-05-23T13:24:18;12.27;;;5.65;;
43509;SDS011;29105;57.764;40.952;2023-05-23T13:26:44;12.15;;;5.70;;
43509;SDS011;29105;57.764;40.952;2023-05-23T13:29:09;8.63;;;6.05;;
43509;SDS011;29105;57.764;40.952;2023-05-23T13:31:35;14.00;;;6.38;;
43509;SDS011;29105;57.764;40.952;2023-05-23T13:34:01;17.30;;;10.20;;
43509;SDS011;29105;57.764;40.952;2023-05-23T13:36:26;11.98;;;6.45;;
43509;SDS011;29105;57.764;40.952;2023-05-23T13:38:52;12.27;;;5.97;;
43509;SDS011;29105;57.764;40.952;2023-05-23T13:41:18;13.25;;;6.80;;
43509;SDS011;29105;57.764;40.952;2023-05-23T13:43:44;9.73;;;6.60;;
43509;SDS011;29105;57.764;40.952;2023-05-23T13:46:10;15.77;;;6.65;;
43509;SDS011;29105;57.764;40.952;2023-05-23T13:48:36;14.13;;;6.82;;
43509;SDS011;29105;57.764;40.952;2023-05-23T13:51:02;16.27;;;7.57;;
43509;SDS011;29105;57.764;40.952;2023-05-23T13:53:28;13.57;;;7.38;;
43509;SDS011;29105;57.764;40.952;2023-05-23T13:55:54;11.02;;;6.32;;
43509;SDS011;29105;57.764;40.952;2023-05-23T13:58:19;16.67;;;7.35;;
43509;SDS011;29105;57.764;40.952;2023-05-23T14:00:45;14.45;;;7.95;;
43509;SDS011;29105;57.764;40.952;2023-05-23T14:03:11;17.25;;;7.45;;
43509;SDS011;29105;57.764;40.952;2023-05-23T14:05:37;14.32;;;7.47;;
43509;SDS011;29105;57.764;40.952;2023-05-23T14:08:03;17.42;;;7.70;;
43509;SDS011;29105;57.764;40.952;2023-05-23T14:10:29;19.95;;;8.95;;
43509;SDS011;29105;57.764;40.952;2023-05-23T14:12:54;11.63;;;6.97;;
43509;SDS011;29105;57.764;40.952;2023-05-23T14:15:20;13.13;;;8.80;;
43509;SDS011;29105;57.764;40.952;2023-05-23T14:17:46;15.55;;;8.35;;
43509;SDS011;29105;57.764;40.952;2023-05-23T14:20:12;15.32;;;8.15;;
43509;SDS011;29105;57.764;40.952;2023-05-23T14:22:37;17.60;;;8.68;;
43509;SDS011;29105;57.764;40.952;2023-05-23T14:25:04;15.27;;;7.72;;
43509;SDS011;29105;57.764;40.952;2023-05-23T14:27:31;15.93;;;8.57;;
43509;SDS011;29105;57.764;40.952;2023-05-23T14:29:57;16.92;;;8.70;;
43509;SDS011;29105;57.764;40.952;2023-05-23T14:32:23;15.88;;;8.32;;
43509;SDS011;29105;57.764;40.952;2023-05-23T14:34:49;14.32;;;8.63;;
43509;SDS011;29105;57.764;40.952;2023-05-23T14:37:14;21.88;;;8.38;;
43509;SDS011;29105;57.764;40.952;2023-05-23T14:39:40;14.75;;;8.13;;
43509;SDS011;29105;57.764;40.952;2023-05-23T14:42:06;17.90;;;8.15;;
43509;SDS011;29105;57.764;40.952;2023-05-23T14:44:31;13.15;;;6.75;;
43509;SDS011;29105;57.764;40.952;2023-05-23T14:46:57;16.85;;;8.07;;
43509;SDS011;29105;57.764;40.952;2023-05-23T14:49:23;18.05;;;7.93;;
43509;SDS011;29105;57.764;40.952;2023-05-23T14:51:48;18.60;;;8.82;;
43509;SDS011;29105;57.764;40.952;2023-05-23T14:54:14;22.92;;;8.55;;